»·PEaware :: N286WF KSBP-KBFL

N286WF :: KSBP-KBFL

FLIGHT INFORMATION

Flight Status: Arrived
Operator: Privately registered:
United States
More flights under this callsign
Pilot: Frank W. (16848)
Aircraft: Unknown
(P28U)
More flights by this aircraft type
Origin: KSBP San Luis Co Regl
United States
Destination: KBFL Meadows
United States
More flights between these airports :: More routes between these airports
Route: KSBP WYNNR FLW KBFL
File this flight plan on PilotEdge
Remarks:
Altitude:
(Current/Filed)
7,500ft
Speed:
(Current/Filed)
140kts
Departed: 26-Oct-19 05:44 PM
Arrived: 26-Oct-19 06:30 PM
Distance/Time
Traveled:
79nm/0:46
Distance/Time
To Go:
Arrived

Flight Plot

Page will automatically refresh every two minutes.


Map Options




Map Legend


Flown Route
Filed Route
Departure Airport
Arrival Airport
Navaid (VOR, NDB)
Fix

Horizontal Profiles

Position Reports

Time Latitude Longitude Heading Altitude Ground
Speed
26-Oct-19 17:28 35.236644 -120.636718 123 215ft 0kts
26-Oct-19 17:29 35.236644 -120.636718 123 215ft 0kts
26-Oct-19 17:30 35.236644 -120.636718 123 215ft 0kts
26-Oct-19 17:31 35.236644 -120.636718 123 215ft 0kts
26-Oct-19 17:32 35.236644 -120.636718 123 215ft 0kts
26-Oct-19 17:33 35.236644 -120.636717 123 215ft 0kts
26-Oct-19 17:34 35.236644 -120.636717 123 215ft 0kts
26-Oct-19 17:35 35.236644 -120.636717 123 215ft 0kts
26-Oct-19 17:36 35.236644 -120.636717 123 215ft 0kts
26-Oct-19 17:37 35.236109 -120.636334 201 215ft 7kts
26-Oct-19 17:38 35.233271 -120.631922 145 215ft 10kts
26-Oct-19 17:39 35.233194 -120.631992 291 215ft 0kts
26-Oct-19 17:40 35.233193 -120.631992 291 215ft 0kts
26-Oct-19 17:41 35.233210 -120.632020 310 215ft 2kts
26-Oct-19 17:42 35.232775 -120.632955 276 215ft 12kts
26-Oct-19 17:43 35.236582 -120.639922 303 326ft 72kts
26-Oct-19 17:44 35.250859 -120.652552 30 1629ft 91kts
26-Oct-19 17:45 35.256070 -120.619989 68 2901ft 111kts
26-Oct-19 17:46 35.262837 -120.583474 66 4084ft 113kts
26-Oct-19 17:47 35.258446 -120.545863 110 5146ft 121kts
26-Oct-19 17:48 35.242982 -120.508974 111 6198ft 123kts
26-Oct-19 17:49 35.227157 -120.471691 111 7238ft 124kts
26-Oct-19 17:50 35.211079 -120.433940 111 8261ft 125kts
26-Oct-19 17:51 35.187538 -120.392866 146 7646ft 163kts
26-Oct-19 17:52 35.168984 -120.355336 96 7900ft 127kts
26-Oct-19 17:53 35.156653 -120.312011 112 7636ft 144kts
26-Oct-19 17:54 35.139249 -120.268330 115 7540ft 143kts
26-Oct-19 17:55 35.120632 -120.224321 116 7543ft 147kts
26-Oct-19 17:56 35.114425 -120.176259 92 7540ft 145kts
26-Oct-19 17:57 35.110806 -120.126923 92 7532ft 146kts
26-Oct-19 17:58 35.107301 -120.077335 92 7506ft 146kts
26-Oct-19 17:59 35.103813 -120.027837 92 7502ft 146kts
26-Oct-19 18:00 35.100293 -119.978129 92 7499ft 146kts
26-Oct-19 18:01 35.096709 -119.927547 92 7497ft 152kts
26-Oct-19 18:02 35.093079 -119.877222 92 7494ft 146kts
26-Oct-19 18:03 35.106994 -119.832171 58 7493ft 141kts
26-Oct-19 18:04 35.124896 -119.789191 57 7491ft 142kts
26-Oct-19 18:05 35.143039 -119.746381 57 7490ft 142kts
26-Oct-19 18:06 35.161243 -119.703499 57 7491ft 141kts
26-Oct-19 18:07 35.176481 -119.667493 56 7492ft 124kts
26-Oct-19 18:08 35.192268 -119.630383 56 7494ft 122kts
26-Oct-19 18:09 35.207909 -119.593549 55 7496ft 121kts
26-Oct-19 18:10 35.223669 -119.557130 55 7482ft 121kts
26-Oct-19 18:11 35.239214 -119.520506 56 7481ft 121kts
26-Oct-19 18:12 35.254725 -119.483784 56 7481ft 121kts
26-Oct-19 18:13 35.270161 -119.447192 56 7481ft 121kts
26-Oct-19 18:14 35.285579 -119.410597 56 7481ft 121kts
26-Oct-19 18:15 35.300687 -119.374702 56 7481ft 121kts
26-Oct-19 18:16 35.315994 -119.338296 56 7479ft 121kts
26-Oct-19 18:17 35.331667 -119.301819 48 7478ft 118kts
26-Oct-19 18:18 35.357589 -119.282127 13 7401ft 116kts
26-Oct-19 18:19 35.387221 -119.269067 13 7208ft 114kts
26-Oct-19 18:20 35.416505 -119.256676 13 6686ft 111kts
26-Oct-19 18:21 35.443324 -119.237669 37 6052ft 121kts
26-Oct-19 18:22 35.455150 -119.201163 97 5202ft 130kts
26-Oct-19 18:23 35.448974 -119.156969 101 4077ft 135kts
26-Oct-19 18:24 35.443952 -119.114777 96 2575ft 122kts
26-Oct-19 18:25 35.436372 -119.079984 140 1437ft 94kts
26-Oct-19 18:27 35.416605 -119.058890 131 1567ft 94kts
26-Oct-19 18:28 35.413739 -119.034502 347 1699ft 95kts
26-Oct-19 18:29 35.432627 -119.054752 309 530ft 70kts
26-Oct-19 18:30 35.438230 -119.059483 84 496ft 0kts
26-Oct-19 18:31 35.436130 -119.056726 135 496ft 27kts
26-Oct-19 18:32 35.431152 -119.050744 124 496ft 12kts
26-Oct-19 18:33 35.430764 -119.046231 321 496ft 7kts
26-Oct-19 18:34 35.430777 -119.046349 205 496ft 0kts
26-Oct-19 18:35 35.430777 -119.046349 205 496ft 0kts
26-Oct-19 18:36 35.430777 -119.046349 205 496ft 0kts
26-Oct-19 18:37 35.430777 -119.046349 205 496ft 0kts
26-Oct-19 18:38 35.430777 -119.046349 205 496ft 0kts
26-Oct-19 18:39 35.430777 -119.046349 205 496ft 0kts
26-Oct-19 18:40 35.430777 -119.046349 205 496ft 0kts
26-Oct-19 18:41 35.430777 -119.046349 205 496ft 0kts
26-Oct-19 18:42 35.430777 -119.046349 205 496ft 0kts
26-Oct-19 18:43 35.430777 -119.046349 205 496ft 0kts
26-Oct-19 18:43 35.430777 -119.046349 205 496ft 0kts

Navigation Log

Ident Type
Flight plan parsing failed, navigation log unavailable